Mc Cleary, Washington
Current Conditions -  °F | °C
As of 12:53 AM on Monday 20 Oct 2014 (Local Time) from KSHN Reporting Station
Light Rain Light Rain  
Wind Chill: 57°   Ceiling: 9000
Heat Index: 57°   Visibility: 7mi
Dew Point: 56°   Wind: 3mph
Humidity: 96%   Direction: 250°WSW
Pressure: 29.68"   Gusts: NA
Location:  47.0427°N, 123.269°W
Report Text: KSHN 200753Z AUTO 25003KT 7SM -RA SCT055 SCT070 OVC090 14/13 A2968 RMK AO2 SLP051 P0005 T01390133 402110106 TSNO $
Loading
Personal Weather Stations






























Interactive Weather Map
Tropical Storm Tracking
New forecast layout! Learn more

10-Day Weather Forecast

Advertisements
Track Severe Weather on mobile